Carouge, Switzerland
Current Conditions -  °F | °C
As of 2:50 PM on Wednesday 26 Nov 2014 (Local Time) from LSGG Reporting Station
Broken Clouds Broken Clouds  
Wind Chill: 52°   Ceiling: 1200
Heat Index: 52°   Visibility: 6mi
Dew Point: 48°   Wind: 2mph
Humidity: 88%   Direction: NA
Pressure: 29.91"   Gusts: NA
Location:  46.19°N, 6.13°E
Report Text: LSGG 261350Z VRB02KT 9999 FEW009 BKN012 11/09 Q1013 NOSIG
Loading
Personal Weather Stations






























Interactive Weather Map New forecast layout! Learn more

10-Day Weather Forecast

Advertisements
Track Severe Weather on mobile